sensor_id;sensor_type;location;lat;lon;timestamp;P1;durP1;ratioP1;P2;durP2;ratioP2
2438;SDS011;14509;47.992;7.848;2023-04-24T00:00:31;0.60;;;0.50;;
2438;SDS011;14509;47.992;7.848;2023-04-24T00:02:34;1.07;;;0.50;;
2438;SDS011;14509;47.992;7.848;2023-04-24T00:04:37;0.97;;;0.50;;
2438;SDS011;14509;47.992;7.848;2023-04-24T00:06:40;0.80;;;0.40;;
2438;SDS011;14509;47.992;7.848;2023-04-24T00:08:42;2.37;;;0.80;;
2438;SDS011;14509;47.992;7.848;2023-04-24T00:10:46;1.20;;;0.60;;
2438;SDS011;14509;47.992;7.848;2023-04-24T00:12:48;2.27;;;0.70;;
2438;SDS011;14509;47.992;7.848;2023-04-24T00:14:50;0.57;;;0.50;;
2438;SDS011;14509;47.992;7.848;2023-04-24T00:16:52;0.50;;;0.40;;
2438;SDS011;14509;47.992;7.848;2023-04-24T00:18:54;0.90;;;0.40;;
2438;SDS011;14509;47.992;7.848;2023-04-24T00:20:56;0.60;;;0.60;;
2438;SDS011;14509;47.992;7.848;2023-04-24T00:22:58;0.87;;;0.67;;
2438;SDS011;14509;47.992;7.848;2023-04-24T00:25:00;1.90;;;0.50;;
2438;SDS011;14509;47.992;7.848;2023-04-24T00:27:04;1.10;;;0.50;;
2438;SDS011;14509;47.992;7.848;2023-04-24T00:29:06;1.97;;;0.60;;
2438;SDS011;14509;47.992;7.848;2023-04-24T00:31:08;1.20;;;0.70;;
2438;SDS011;14509;47.992;7.848;2023-04-24T00:33:10;1.07;;;0.50;;
2438;SDS011;14509;47.992;7.848;2023-04-24T00:35:13;0.90;;;0.70;;
2438;SDS011;14509;47.992;7.848;2023-04-24T00:37:16;0.50;;;0.30;;
2438;SDS011;14509;47.992;7.848;2023-04-24T00:39:18;0.60;;;0.60;;
2438;SDS011;14509;47.992;7.848;2023-04-24T00:41:20;1.40;;;0.50;;
2438;SDS011;14509;47.992;7.848;2023-04-24T00:43:24;4.40;;;0.60;;
2438;SDS011;14509;47.992;7.848;2023-04-24T00:45:27;0.67;;;0.40;;
2438;SDS011;14509;47.992;7.848;2023-04-24T00:47:31;1.33;;;0.53;;
2438;SDS011;14509;47.992;7.848;2023-04-24T00:49:34;0.50;;;0.40;;
2438;SDS011;14509;47.992;7.848;2023-04-24T00:51:36;0.97;;;0.37;;
2438;SDS011;14509;47.992;7.848;2023-04-24T00:53:38;0.63;;;0.47;;
2438;SDS011;14509;47.992;7.848;2023-04-24T00:55:40;0.60;;;0.50;;
2438;SDS011;14509;47.992;7.848;2023-04-24T00:57:42;0.50;;;0.50;;
2438;SDS011;14509;47.992;7.848;2023-04-24T00:59:46;0.70;;;0.70;;
2438;SDS011;14509;47.992;7.848;2023-04-24T01:01:48;3.17;;;0.60;;
2438;SDS011;14509;47.992;7.848;2023-04-24T01:03:50;0.70;;;0.50;;
2438;SDS011;14509;47.992;7.848;2023-04-24T01:05:53;0.70;;;0.50;;
2438;SDS011;14509;47.992;7.848;2023-04-24T01:07:56;2.10;;;0.80;;
2438;SDS011;14509;47.992;7.848;2023-04-24T01:09:59;2.73;;;1.13;;
2438;SDS011;14509;47.992;7.848;2023-04-24T01:12:01;0.87;;;0.47;;
2438;SDS011;14509;47.992;7.848;2023-04-24T01:14:03;0.90;;;0.50;;
2438;SDS011;14509;47.992;7.848;2023-04-24T01:16:06;0.60;;;0.50;;
2438;SDS011;14509;47.992;7.848;2023-04-24T01:18:08;0.60;;;0.40;;
2438;SDS011;14509;47.992;7.848;2023-04-24T01:20:10;0.90;;;0.70;;
2438;SDS011;14509;47.992;7.848;2023-04-24T01:22:16;0.90;;;0.43;;
2438;SDS011;14509;47.992;7.848;2023-04-24T01:24:18;1.83;;;0.80;;
2438;SDS011;14509;47.992;7.848;2023-04-24T01:26:21;1.53;;;0.70;;
2438;SDS011;14509;47.992;7.848;2023-04-24T01:28:23;1.27;;;0.67;;
2438;SDS011;14509;47.992;7.848;2023-04-24T01:30:25;0.63;;;0.63;;
2438;SDS011;14509;47.992;7.848;2023-04-24T01:32:28;0.70;;;0.60;;
2438;SDS011;14509;47.992;7.848;2023-04-24T01:34:30;0.70;;;0.50;;
2438;SDS011;14509;47.992;7.848;2023-04-24T01:36:33;2.03;;;0.40;;
2438;SDS011;14509;47.992;7.848;2023-04-24T01:38:38;1.00;;;0.60;;
2438;SDS011;14509;47.992;7.848;2023-04-24T01:40:40;5.33;;;0.60;;
2438;SDS011;14509;47.992;7.848;2023-04-24T01:42:42;0.40;;;0.30;;
2438;SDS011;14509;47.992;7.848;2023-04-24T01:44:44;0.53;;;0.53;;
2438;SDS011;14509;47.992;7.848;2023-04-24T01:46:46;0.80;;;0.50;;
2438;SDS011;14509;47.992;7.848;2023-04-24T01:48:48;1.43;;;0.70;;
2438;SDS011;14509;47.992;7.848;2023-04-24T01:50:50;1.40;;;0.70;;
2438;SDS011;14509;47.992;7.848;2023-04-24T01:52:52;0.53;;;0.40;;
2438;SDS011;14509;47.992;7.848;2023-04-24T01:54:55;6.67;;;0.80;;
2438;SDS011;14509;47.992;7.848;2023-04-24T01:56:57;3.70;;;0.70;;
2438;SDS011;14509;47.992;7.848;2023-04-24T01:59:01;0.90;;;0.50;;
2438;SDS011;14509;47.992;7.848;2023-04-24T02:01:05;2.27;;;0.87;;
2438;SDS011;14509;47.992;7.848;2023-04-24T02:03:08;1.43;;;0.80;;
2438;SDS011;14509;47.992;7.848;2023-04-24T02:05:10;3.33;;;0.80;;
2438;SDS011;14509;47.992;7.848;2023-04-24T02:07:12;1.37;;;0.83;;
2438;SDS011;14509;47.992;7.848;2023-04-24T02:09:14;1.67;;;0.60;;
2438;SDS011;14509;47.992;7.848;2023-04-24T02:11:17;1.47;;;1.00;;
2438;SDS011;14509;47.992;7.848;2023-04-24T02:13:20;0.60;;;0.47;;
2438;SDS011;14509;47.992;7.848;2023-04-24T02:15:22;2.20;;;0.80;;
2438;SDS011;14509;47.992;7.848;2023-04-24T02:17:24;6.63;;;0.80;;
2438;SDS011;14509;47.992;7.848;2023-04-24T02:19:26;4.53;;;1.23;;
2438;SDS011;14509;47.992;7.848;2023-04-24T02:21:28;0.80;;;0.53;;
2438;SDS011;14509;47.992;7.848;2023-04-24T02:23:30;1.33;;;1.00;;
2438;SDS011;14509;47.992;7.848;2023-04-24T02:25:33;2.50;;;0.60;;
2438;SDS011;14509;47.992;7.848;2023-04-24T02:27:36;1.20;;;1.10;;
2438;SDS011;14509;47.992;7.848;2023-04-24T02:29:39;2.50;;;0.97;;
2438;SDS011;14509;47.992;7.848;2023-04-24T02:31:41;0.70;;;0.50;;
2438;SDS011;14509;47.992;7.848;2023-04-24T02:33:43;4.27;;;0.90;;
2438;SDS011;14509;47.992;7.848;2023-04-24T02:35:45;1.80;;;0.70;;
2438;SDS011;14509;47.992;7.848;2023-04-24T02:37:47;0.60;;;0.50;;
2438;SDS011;14509;47.992;7.848;2023-04-24T02:39:49;1.70;;;0.70;;
2438;SDS011;14509;47.992;7.848;2023-04-24T02:41:52;0.93;;;0.67;;
2438;SDS011;14509;47.992;7.848;2023-04-24T02:43:55;0.73;;;0.50;;
2438;SDS011;14509;47.992;7.848;2023-04-24T02:45:57;5.43;;;0.87;;
2438;SDS011;14509;47.992;7.848;2023-04-24T02:48:00;0.70;;;0.50;;
2438;SDS011;14509;47.992;7.848;2023-04-24T02:50:02;2.10;;;0.60;;
2438;SDS011;14509;47.992;7.848;2023-04-24T02:52:04;1.37;;;0.70;;
2438;SDS011;14509;47.992;7.848;2023-04-24T02:54:06;3.43;;;0.73;;
2438;SDS011;14509;47.992;7.848;2023-04-24T02:56:09;3.23;;;0.80;;
2438;SDS011;14509;47.992;7.848;2023-04-24T02:58:12;1.43;;;0.60;;
2438;SDS011;14509;47.992;7.848;2023-04-24T03:00:16;0.70;;;0.70;;
2438;SDS011;14509;47.992;7.848;2023-04-24T03:02:18;1.90;;;0.57;;
2438;SDS011;14509;47.992;7.848;2023-04-24T03:04:20;0.83;;;0.70;;
2438;SDS011;14509;47.992;7.848;2023-04-24T03:06:23;0.97;;;0.60;;
2438;SDS011;14509;47.992;7.848;2023-04-24T03:08:27;1.63;;;0.83;;
2438;SDS011;14509;47.992;7.848;2023-04-24T03:10:28;0.80;;;0.43;;
2438;SDS011;14509;47.992;7.848;2023-04-24T03:12:30;1.27;;;0.57;;
2438;SDS011;14509;47.992;7.848;2023-04-24T03:14:33;2.10;;;0.87;;
2438;SDS011;14509;47.992;7.848;2023-04-24T03:16:36;1.00;;;0.53;;
2438;SDS011;14509;47.992;7.848;2023-04-24T03:18:38;4.10;;;0.90;;
2438;SDS011;14509;47.992;7.848;2023-04-24T03:20:42;0.93;;;0.60;;
2438;SDS011;14509;47.992;7.848;2023-04-24T03:22:47;1.63;;;0.63;;
2438;SDS011;14509;47.992;7.848;2023-04-24T03:24:50;1.33;;;0.90;;
2438;SDS011;14509;47.992;7.848;2023-04-24T03:26:52;3.03;;;0.73;;
2438;SDS011;14509;47.992;7.848;2023-04-24T03:29:21;1.00;;;0.80;;
2438;SDS011;14509;47.992;7.848;2023-04-24T03:31:23;1.20;;;0.70;;
2438;SDS011;14509;47.992;7.848;2023-04-24T03:33:27;2.00;;;1.13;;
2438;SDS011;14509;47.992;7.848;2023-04-24T03:35:34;3.47;;;0.60;;
2438;SDS011;14509;47.992;7.848;2023-04-24T03:37:39;1.00;;;0.90;;
2438;SDS011;14509;47.992;7.848;2023-04-24T03:40:01;0.97;;;0.63;;
2438;SDS011;14509;47.992;7.848;2023-04-24T03:42:03;1.63;;;0.60;;
2438;SDS011;14509;47.992;7.848;2023-04-24T03:44:17;2.10;;;0.60;;
2438;SDS011;14509;47.992;7.848;2023-04-24T03:46:19;0.87;;;0.63;;
2438;SDS011;14509;47.992;7.848;2023-04-24T03:48:29;1.10;;;0.67;;
2438;SDS011;14509;47.992;7.848;2023-04-24T03:50:31;0.87;;;0.87;;
2438;SDS011;14509;47.992;7.848;2023-04-24T03:52:34;1.23;;;0.60;;
2438;SDS011;14509;47.992;7.848;2023-04-24T03:56:51;1.37;;;0.97;;
2438;SDS011;14509;47.992;7.848;2023-04-24T03:58:53;0.70;;;0.70;;
2438;SDS011;14509;47.992;7.848;2023-04-24T04:00:55;1.40;;;0.70;;
2438;SDS011;14509;47.992;7.848;2023-04-24T04:03:10;1.13;;;0.73;;
2438;SDS011;14509;47.992;7.848;2023-04-24T04:05:14;0.63;;;0.50;;
2438;SDS011;14509;47.992;7.848;2023-04-24T04:07:16;0.90;;;0.73;;
2438;SDS011;14509;47.992;7.848;2023-04-24T04:09:18;3.83;;;1.20;;
2438;SDS011;14509;47.992;7.848;2023-04-24T04:11:20;2.90;;;0.73;;
2438;SDS011;14509;47.992;7.848;2023-04-24T04:13:22;1.20;;;0.87;;
2438;SDS011;14509;47.992;7.848;2023-04-24T04:15:25;1.67;;;0.87;;
2438;SDS011;14509;47.992;7.848;2023-04-24T04:17:26;1.80;;;1.03;;
2438;SDS011;14509;47.992;7.848;2023-04-24T04:19:29;1.67;;;1.20;;
2438;SDS011;14509;47.992;7.848;2023-04-24T04:21:32;1.00;;;0.90;;
2438;SDS011;14509;47.992;7.848;2023-04-24T04:23:44;1.00;;;0.90;;
2438;SDS011;14509;47.992;7.848;2023-04-24T04:25:51;1.40;;;0.93;;
2438;SDS011;14509;47.992;7.848;2023-04-24T04:27:56;1.70;;;1.10;;
2438;SDS011;14509;47.992;7.848;2023-04-24T04:29:59;1.73;;;0.90;;
2438;SDS011;14509;47.992;7.848;2023-04-24T04:32:06;2.20;;;0.87;;
2438;SDS011;14509;47.992;7.848;2023-04-24T04:34:08;1.63;;;0.90;;
2438;SDS011;14509;47.992;7.848;2023-04-24T04:36:12;1.40;;;1.03;;
2438;SDS011;14509;47.992;7.848;2023-04-24T04:38:20;2.10;;;0.60;;
2438;SDS011;14509;47.992;7.848;2023-04-24T04:40:31;1.10;;;0.80;;
2438;SDS011;14509;47.992;7.848;2023-04-24T04:42:37;1.03;;;0.93;;
2438;SDS011;14509;47.992;7.848;2023-04-24T04:44:41;2.00;;;1.17;;
2438;SDS011;14509;47.992;7.848;2023-04-24T04:46:48;1.93;;;1.37;;
2438;SDS011;14509;47.992;7.848;2023-04-24T04:48:59;1.03;;;0.87;;
2438;SDS011;14509;47.992;7.848;2023-04-24T04:51:01;2.33;;;1.17;;
2438;SDS011;14509;47.992;7.848;2023-04-24T04:53:03;1.67;;;0.90;;
2438;SDS011;14509;47.992;7.848;2023-04-24T04:55:10;1.43;;;1.10;;
2438;SDS011;14509;47.992;7.848;2023-04-24T04:57:36;1.53;;;1.23;;
2438;SDS011;14509;47.992;7.848;2023-04-24T04:59:39;2.03;;;1.00;;
2438;SDS011;14509;47.992;7.848;2023-04-24T05:01:45;1.20;;;1.10;;
2438;SDS011;14509;47.992;7.848;2023-04-24T05:03:49;3.10;;;1.43;;
2438;SDS011;14509;47.992;7.848;2023-04-24T05:05:51;2.50;;;2.30;;
2438;SDS011;14509;47.992;7.848;2023-04-24T05:07:53;1.23;;;1.13;;
2438;SDS011;14509;47.992;7.848;2023-04-24T05:09:56;0.83;;;0.80;;
2438;SDS011;14509;47.992;7.848;2023-04-24T05:11:59;1.07;;;0.97;;
2438;SDS011;14509;47.992;7.848;2023-04-24T05:14:04;1.90;;;1.47;;
2438;SDS011;14509;47.992;7.848;2023-04-24T05:16:09;4.70;;;1.60;;
2438;SDS011;14509;47.992;7.848;2023-04-24T05:18:12;2.33;;;1.20;;
2438;SDS011;14509;47.992;7.848;2023-04-24T05:20:15;3.07;;;1.57;;
2438;SDS011;14509;47.992;7.848;2023-04-24T05:22:17;1.07;;;0.97;;
2438;SDS011;14509;47.992;7.848;2023-04-24T05:24:24;1.50;;;1.30;;
2438;SDS011;14509;47.992;7.848;2023-04-24T05:26:29;1.93;;;1.73;;
2438;SDS011;14509;47.992;7.848;2023-04-24T05:28:34;2.10;;;1.10;;
2438;SDS011;14509;47.992;7.848;2023-04-24T05:30:41;2.87;;;1.77;;
2438;SDS011;14509;47.992;7.848;2023-04-24T05:32:43;2.80;;;1.60;;
2438;SDS011;14509;47.992;7.848;2023-04-24T05:34:46;1.43;;;1.33;;
2438;SDS011;14509;47.992;7.848;2023-04-24T05:36:48;1.77;;;1.60;;
2438;SDS011;14509;47.992;7.848;2023-04-24T05:38:50;1.40;;;1.30;;
2438;SDS011;14509;47.992;7.848;2023-04-24T05:40:52;1.70;;;1.40;;
2438;SDS011;14509;47.992;7.848;2023-04-24T05:42:54;2.30;;;1.67;;
2438;SDS011;14509;47.992;7.848;2023-04-24T05:44:59;2.23;;;1.67;;
2438;SDS011;14509;47.992;7.848;2023-04-24T05:47:01;2.23;;;1.70;;
2438;SDS011;14509;47.992;7.848;2023-04-24T05:49:04;2.60;;;1.60;;
2438;SDS011;14509;47.992;7.848;2023-04-24T05:51:07;1.63;;;1.40;;
2438;SDS011;14509;47.992;7.848;2023-04-24T05:53:10;3.20;;;2.10;;
2438;SDS011;14509;47.992;7.848;2023-04-24T05:55:12;1.10;;;1.10;;
2438;SDS011;14509;47.992;7.848;2023-04-24T05:57:18;4.33;;;1.80;;
2438;SDS011;14509;47.992;7.848;2023-04-24T05:59:47;2.83;;;1.60;;
2438;SDS011;14509;47.992;7.848;2023-04-24T06:01:50;2.30;;;2.10;;
2438;SDS011;14509;47.992;7.848;2023-04-24T06:03:54;2.40;;;1.90;;
2438;SDS011;14509;47.992;7.848;2023-04-24T06:05:58;2.33;;;1.60;;
2438;SDS011;14509;47.992;7.848;2023-04-24T06:08:00;2.67;;;1.90;;
2438;SDS011;14509;47.992;7.848;2023-04-24T06:10:07;2.47;;;2.20;;
2438;SDS011;14509;47.992;7.848;2023-04-24T06:12:15;2.43;;;2.23;;
2438;SDS011;14509;47.992;7.848;2023-04-24T06:14:29;3.53;;;2.43;;
2438;SDS011;14509;47.992;7.848;2023-04-24T06:16:47;2.00;;;1.80;;
2438;SDS011;14509;47.992;7.848;2023-04-24T06:19:02;3.00;;;2.30;;
2438;SDS011;14509;47.992;7.848;2023-04-24T06:21:04;2.93;;;1.90;;
2438;SDS011;14509;47.992;7.848;2023-04-24T06:23:06;1.43;;;1.33;;
2438;SDS011;14509;47.992;7.848;2023-04-24T06:25:08;2.07;;;1.87;;
2438;SDS011;14509;47.992;7.848;2023-04-24T06:27:10;1.80;;;1.70;;
2438;SDS011;14509;47.992;7.848;2023-04-24T06:29:15;2.10;;;1.53;;
2438;SDS011;14509;47.992;7.848;2023-04-24T06:31:16;2.43;;;1.60;;
2438;SDS011;14509;47.992;7.848;2023-04-24T06:33:18;2.37;;;1.83;;
2438;SDS011;14509;47.992;7.848;2023-04-24T06:35:22;5.20;;;2.70;;
2438;SDS011;14509;47.992;7.848;2023-04-24T06:37:24;3.87;;;2.03;;
2438;SDS011;14509;47.992;7.848;2023-04-24T06:39:26;3.00;;;2.40;;
2438;SDS011;14509;47.992;7.848;2023-04-24T06:41:28;2.20;;;1.43;;
2438;SDS011;14509;47.992;7.848;2023-04-24T06:43:30;2.83;;;2.17;;
2438;SDS011;14509;47.992;7.848;2023-04-24T06:45:32;2.17;;;1.90;;
2438;SDS011;14509;47.992;7.848;2023-04-24T06:47:34;2.70;;;1.80;;
2438;SDS011;14509;47.992;7.848;2023-04-24T06:49:36;1.97;;;1.57;;
2438;SDS011;14509;47.992;7.848;2023-04-24T06:51:39;8.23;;;2.10;;
2438;SDS011;14509;47.992;7.848;2023-04-24T06:53:41;3.17;;;1.97;;
2438;SDS011;14509;47.992;7.848;2023-04-24T06:55:43;2.23;;;2.03;;
2438;SDS011;14509;47.992;7.848;2023-04-24T06:57:46;1.90;;;1.53;;
2438;SDS011;14509;47.992;7.848;2023-04-24T06:59:48;2.10;;;1.90;;
2438;SDS011;14509;47.992;7.848;2023-04-24T07:01:50;4.13;;;2.10;;
2438;SDS011;14509;47.992;7.848;2023-04-24T07:03:52;1.93;;;1.73;;
2438;SDS011;14509;47.992;7.848;2023-04-24T07:05:54;2.30;;;1.90;;
2438;SDS011;14509;47.992;7.848;2023-04-24T07:07:57;3.23;;;2.23;;
2438;SDS011;14509;47.992;7.848;2023-04-24T07:09:59;1.47;;;1.37;;
2438;SDS011;14509;47.992;7.848;2023-04-24T07:12:01;3.93;;;2.30;;
2438;SDS011;14509;47.992;7.848;2023-04-24T07:14:03;1.90;;;1.50;;
2438;SDS011;14509;47.992;7.848;2023-04-24T07:16:05;4.03;;;2.13;;
2438;SDS011;14509;47.992;7.848;2023-04-24T07:18:07;2.60;;;1.83;;
2438;SDS011;14509;47.992;7.848;2023-04-24T07:20:09;1.53;;;1.20;;
2438;SDS011;14509;47.992;7.848;2023-04-24T07:22:12;1.27;;;1.17;;
2438;SDS011;14509;47.992;7.848;2023-04-24T07:24:18;1.83;;;1.57;;
2438;SDS011;14509;47.992;7.848;2023-04-24T07:26:20;2.03;;;1.83;;
2438;SDS011;14509;47.992;7.848;2023-04-24T07:28:22;3.13;;;1.37;;
2438;SDS011;14509;47.992;7.848;2023-04-24T07:30:24;2.00;;;1.37;;
2438;SDS011;14509;47.992;7.848;2023-04-24T07:32:26;1.73;;;1.33;;
2438;SDS011;14509;47.992;7.848;2023-04-24T07:34:28;2.10;;;1.53;;
2438;SDS011;14509;47.992;7.848;2023-04-24T07:36:30;1.77;;;1.53;;
2438;SDS011;14509;47.992;7.848;2023-04-24T07:38:32;1.60;;;1.40;;
2438;SDS011;14509;47.992;7.848;2023-04-24T07:40:36;1.50;;;1.30;;
2438;SDS011;14509;47.992;7.848;2023-04-24T07:42:38;1.67;;;1.57;;
2438;SDS011;14509;47.992;7.848;2023-04-24T07:44:39;2.63;;;2.10;;
2438;SDS011;14509;47.992;7.848;2023-04-24T07:46:41;1.37;;;1.27;;
2438;SDS011;14509;47.992;7.848;2023-04-24T07:48:43;2.37;;;1.60;;
2438;SDS011;14509;47.992;7.848;2023-04-24T07:50:46;1.60;;;1.50;;
2438;SDS011;14509;47.992;7.848;2023-04-24T07:52:48;3.13;;;1.20;;
2438;SDS011;14509;47.992;7.848;2023-04-24T07:54:50;2.07;;;1.70;;
2438;SDS011;14509;47.992;7.848;2023-04-24T07:56:59;2.10;;;1.60;;
2438;SDS011;14509;47.992;7.848;2023-04-24T07:59:01;3.07;;;1.20;;
2438;SDS011;14509;47.992;7.848;2023-04-24T08:01:03;1.90;;;1.63;;
2438;SDS011;14509;47.992;7.848;2023-04-24T08:03:05;2.47;;;2.27;;
2438;SDS011;14509;47.992;7.848;2023-04-24T08:05:08;2.90;;;1.90;;
2438;SDS011;14509;47.992;7.848;2023-04-24T08:07:10;1.47;;;1.37;;
2438;SDS011;14509;47.992;7.848;2023-04-24T08:09:13;1.30;;;1.20;;
2438;SDS011;14509;47.992;7.848;2023-04-24T08:11:14;3.33;;;2.13;;
2438;SDS011;14509;47.992;7.848;2023-04-24T08:13:18;1.83;;;1.70;;
2438;SDS011;14509;47.992;7.848;2023-04-24T08:15:20;3.77;;;1.60;;
2438;SDS011;14509;47.992;7.848;2023-04-24T08:17:22;3.00;;;1.60;;
2438;SDS011;14509;47.992;7.848;2023-04-24T08:19:25;2.50;;;1.50;;
2438;SDS011;14509;47.992;7.848;2023-04-24T08:21:27;1.70;;;1.37;;
2438;SDS011;14509;47.992;7.848;2023-04-24T08:23:29;2.60;;;1.97;;
2438;SDS011;14509;47.992;7.848;2023-04-24T08:25:30;3.17;;;1.80;;
2438;SDS011;14509;47.992;7.848;2023-04-24T08:27:33;1.80;;;1.10;;
2438;SDS011;14509;47.992;7.848;2023-04-24T08:29:38;2.80;;;1.70;;
2438;SDS011;14509;47.992;7.848;2023-04-24T08:31:40;2.00;;;1.83;;
2438;SDS011;14509;47.992;7.848;2023-04-24T08:33:41;2.20;;;1.50;;
2438;SDS011;14509;47.992;7.848;2023-04-24T08:35:45;5.97;;;2.00;;
2438;SDS011;14509;47.992;7.848;2023-04-24T08:37:47;3.07;;;1.90;;
2438;SDS011;14509;47.992;7.848;2023-04-24T08:39:50;2.50;;;1.60;;
2438;SDS011;14509;47.992;7.848;2023-04-24T08:41:52;1.67;;;1.47;;
2438;SDS011;14509;47.992;7.848;2023-04-24T08:43:54;1.50;;;1.40;;
2438;SDS011;14509;47.992;7.848;2023-04-24T08:45:59;1.93;;;1.67;;
2438;SDS011;14509;47.992;7.848;2023-04-24T08:48:02;6.80;;;1.97;;
2438;SDS011;14509;47.992;7.848;2023-04-24T08:50:06;1.87;;;1.17;;
2438;SDS011;14509;47.992;7.848;2023-04-24T08:52:08;2.80;;;1.60;;
2438;SDS011;14509;47.992;7.848;2023-04-24T08:54:13;1.43;;;1.33;;
2438;SDS011;14509;47.992;7.848;2023-04-24T08:56:15;1.70;;;1.40;;
2438;SDS011;14509;47.992;7.848;2023-04-24T08:58:17;2.73;;;1.60;;
2438;SDS011;14509;47.992;7.848;2023-04-24T09:00:20;1.47;;;1.17;;
2438;SDS011;14509;47.992;7.848;2023-04-24T09:02:24;1.63;;;1.40;;
2438;SDS011;14509;47.992;7.848;2023-04-24T09:04:26;2.60;;;1.60;;
2438;SDS011;14509;47.992;7.848;2023-04-24T09:06:30;1.13;;;1.10;;
2438;SDS011;14509;47.992;7.848;2023-04-24T09:08:33;2.87;;;1.30;;
2438;SDS011;14509;47.992;7.848;2023-04-24T09:10:35;3.10;;;1.43;;
2438;SDS011;14509;47.992;7.848;2023-04-24T09:12:37;1.30;;;1.20;;
2438;SDS011;14509;47.992;7.848;2023-04-24T09:14:39;2.03;;;1.40;;
2438;SDS011;14509;47.992;7.848;2023-04-24T09:16:45;1.33;;;1.20;;
2438;SDS011;14509;47.992;7.848;2023-04-24T09:18:48;4.30;;;1.40;;
2438;SDS011;14509;47.992;7.848;2023-04-24T09:20:56;1.37;;;1.13;;
2438;SDS011;14509;47.992;7.848;2023-04-24T09:22:58;2.87;;;1.43;;
2438;SDS011;14509;47.992;7.848;2023-04-24T09:25:04;2.93;;;1.40;;
2438;SDS011;14509;47.992;7.848;2023-04-24T09:27:07;4.93;;;1.80;;
2438;SDS011;14509;47.992;7.848;2023-04-24T09:29:14;1.20;;;1.10;;
2438;SDS011;14509;47.992;7.848;2023-04-24T09:31:17;1.50;;;1.40;;
2438;SDS011;14509;47.992;7.848;2023-04-24T09:33:22;1.73;;;1.60;;
2438;SDS011;14509;47.992;7.848;2023-04-24T09:35:25;1.33;;;1.03;;
2438;SDS011;14509;47.992;7.848;2023-04-24T09:37:28;1.40;;;1.30;;
2438;SDS011;14509;47.992;7.848;2023-04-24T09:39:30;2.30;;;1.10;;
2438;SDS011;14509;47.992;7.848;2023-04-24T09:41:32;1.13;;;1.03;;
2438;SDS011;14509;47.992;7.848;2023-04-24T09:43:35;1.53;;;1.40;;
2438;SDS011;14509;47.992;7.848;2023-04-24T09:45:37;1.90;;;1.20;;
2438;SDS011;14509;47.992;7.848;2023-04-24T09:47:40;1.53;;;1.17;;
2438;SDS011;14509;47.992;7.848;2023-04-24T09:49:42;1.73;;;1.27;;
2438;SDS011;14509;47.992;7.848;2023-04-24T09:51:46;8.63;;;1.63;;
2438;SDS011;14509;47.992;7.848;2023-04-24T09:53:48;0.70;;;0.70;;
2438;SDS011;14509;47.992;7.848;2023-04-24T09:56:01;2.77;;;1.53;;
2438;SDS011;14509;47.992;7.848;2023-04-24T09:58:04;1.80;;;1.20;;
2438;SDS011;14509;47.992;7.848;2023-04-24T10:00:09;1.90;;;1.00;;
2438;SDS011;14509;47.992;7.848;2023-04-24T10:02:16;2.00;;;1.87;;
2438;SDS011;14509;47.992;7.848;2023-04-24T10:04:20;1.30;;;0.80;;
2438;SDS011;14509;47.992;7.848;2023-04-24T10:06:29;1.80;;;0.93;;
2438;SDS011;14509;47.992;7.848;2023-04-24T10:08:37;1.00;;;0.80;;
2438;SDS011;14509;47.992;7.848;2023-04-24T10:10:40;2.30;;;1.10;;
2438;SDS011;14509;47.992;7.848;2023-04-24T10:12:43;2.20;;;0.90;;
2438;SDS011;14509;47.992;7.848;2023-04-24T10:14:46;1.17;;;0.70;;
2438;SDS011;14509;47.992;7.848;2023-04-24T10:16:48;0.80;;;0.73;;
2438;SDS011;14509;47.992;7.848;2023-04-24T10:18:50;1.10;;;0.93;;
2438;SDS011;14509;47.992;7.848;2023-04-24T10:20:53;1.67;;;0.63;;
2438;SDS011;14509;47.992;7.848;2023-04-24T10:22:56;1.10;;;0.90;;
2438;SDS011;14509;47.992;7.848;2023-04-24T10:25:01;1.43;;;0.90;;
2438;SDS011;14509;47.992;7.848;2023-04-24T10:27:05;1.60;;;1.10;;
2438;SDS011;14509;47.992;7.848;2023-04-24T10:29:09;1.70;;;0.90;;
2438;SDS011;14509;47.992;7.848;2023-04-24T10:31:12;1.73;;;1.00;;
2438;SDS011;14509;47.992;7.848;2023-04-24T10:33:15;1.63;;;0.80;;
2438;SDS011;14509;47.992;7.848;2023-04-24T10:35:18;1.10;;;1.00;;
2438;SDS011;14509;47.992;7.848;2023-04-24T10:37:24;1.40;;;0.80;;
2438;SDS011;14509;47.992;7.848;2023-04-24T10:39:27;0.73;;;0.73;;
2438;SDS011;14509;47.992;7.848;2023-04-24T10:41:32;1.83;;;1.10;;
2438;SDS011;14509;47.992;7.848;2023-04-24T10:43:35;2.00;;;1.23;;
2438;SDS011;14509;47.992;7.848;2023-04-24T10:45:37;1.67;;;0.77;;
2438;SDS011;14509;47.992;7.848;2023-04-24T10:47:39;1.40;;;1.10;;
2438;SDS011;14509;47.992;7.848;2023-04-24T10:49:42;1.97;;;1.10;;
2438;SDS011;14509;47.992;7.848;2023-04-24T10:51:45;2.60;;;1.60;;
2438;SDS011;14509;47.992;7.848;2023-04-24T10:53:49;1.07;;;0.97;;
2438;SDS011;14509;47.992;7.848;2023-04-24T10:55:52;2.10;;;1.00;;
2438;SDS011;14509;47.992;7.848;2023-04-24T10:58:03;1.20;;;1.10;;
2438;SDS011;14509;47.992;7.848;2023-04-24T11:02:35;1.30;;;1.00;;
2438;SDS011;14509;47.992;7.848;2023-04-24T11:04:38;1.40;;;1.30;;
2438;SDS011;14509;47.992;7.848;2023-04-24T11:06:40;0.90;;;0.90;;
2438;SDS011;14509;47.992;7.848;2023-04-24T11:08:43;1.00;;;0.90;;
2438;SDS011;14509;47.992;7.848;2023-04-24T11:10:47;2.20;;;1.13;;
2438;SDS011;14509;47.992;7.848;2023-04-24T11:12:55;2.63;;;1.17;;
2438;SDS011;14509;47.992;7.848;2023-04-24T11:15:02;6.10;;;1.70;;
2438;SDS011;14509;47.992;7.848;2023-04-24T11:17:04;1.10;;;1.00;;
2438;SDS011;14509;47.992;7.848;2023-04-24T11:19:07;2.70;;;1.40;;
2438;SDS011;14509;47.992;7.848;2023-04-24T11:21:11;3.43;;;1.20;;
2438;SDS011;14509;47.992;7.848;2023-04-24T11:23:13;2.17;;;1.40;;
2438;SDS011;14509;47.992;7.848;2023-04-24T11:25:16;1.20;;;1.03;;
2438;SDS011;14509;47.992;7.848;2023-04-24T11:27:18;1.17;;;1.03;;
2438;SDS011;14509;47.992;7.848;2023-04-24T11:29:21;6.17;;;1.20;;
2438;SDS011;14509;47.992;7.848;2023-04-24T11:31:38;2.37;;;1.43;;
2438;SDS011;14509;47.992;7.848;2023-04-24T11:33:41;3.40;;;1.50;;
2438;SDS011;14509;47.992;7.848;2023-04-24T11:35:43;2.60;;;1.13;;
2438;SDS011;14509;47.992;7.848;2023-04-24T11:37:46;1.30;;;1.20;;
2438;SDS011;14509;47.992;7.848;2023-04-24T11:39:52;1.40;;;1.23;;
2438;SDS011;14509;47.992;7.848;2023-04-24T11:42:01;1.50;;;1.03;;
2438;SDS011;14509;47.992;7.848;2023-04-24T11:44:05;2.50;;;0.93;;
2438;SDS011;14509;47.992;7.848;2023-04-24T11:46:09;2.63;;;1.20;;
2438;SDS011;14509;47.992;7.848;2023-04-24T11:48:12;1.33;;;0.90;;
2438;SDS011;14509;47.992;7.848;2023-04-24T11:50:21;5.33;;;1.20;;
2438;SDS011;14509;47.992;7.848;2023-04-24T11:52:25;1.47;;;1.20;;
2438;SDS011;14509;47.992;7.848;2023-04-24T11:54:28;1.90;;;1.60;;
2438;SDS011;14509;47.992;7.848;2023-04-24T11:56:30;1.00;;;0.90;;
2438;SDS011;14509;47.992;7.848;2023-04-24T11:58:34;1.10;;;1.03;;
2438;SDS011;14509;47.992;7.848;2023-04-24T12:00:36;1.47;;;1.10;;
2438;SDS011;14509;47.992;7.848;2023-04-24T12:02:38;1.23;;;1.13;;
2438;SDS011;14509;47.992;7.848;2023-04-24T12:04:41;2.00;;;1.03;;
2438;SDS011;14509;47.992;7.848;2023-04-24T12:06:58;3.20;;;1.40;;
2438;SDS011;14509;47.992;7.848;2023-04-24T12:09:01;3.67;;;1.20;;
2438;SDS011;14509;47.992;7.848;2023-04-24T12:11:04;1.40;;;1.20;;
2438;SDS011;14509;47.992;7.848;2023-04-24T12:13:09;1.13;;;1.03;;
2438;SDS011;14509;47.992;7.848;2023-04-24T12:15:11;1.70;;;0.90;;
2438;SDS011;14509;47.992;7.848;2023-04-24T12:17:13;2.50;;;1.33;;
2438;SDS011;14509;47.992;7.848;2023-04-24T12:19:17;2.10;;;1.23;;
2438;SDS011;14509;47.992;7.848;2023-04-24T12:21:22;1.53;;;1.43;;
2438;SDS011;14509;47.992;7.848;2023-04-24T12:23:35;3.00;;;1.40;;
2438;SDS011;14509;47.992;7.848;2023-04-24T12:25:38;3.50;;;1.33;;
2438;SDS011;14509;47.992;7.848;2023-04-24T12:27:41;1.67;;;1.20;;
2438;SDS011;14509;47.992;7.848;2023-04-24T12:29:51;1.20;;;1.10;;
2438;SDS011;14509;47.992;7.848;2023-04-24T12:31:53;1.23;;;1.13;;
2438;SDS011;14509;47.992;7.848;2023-04-24T12:33:56;1.73;;;1.37;;
2438;SDS011;14509;47.992;7.848;2023-04-24T12:35:58;1.80;;;1.27;;
2438;SDS011;14509;47.992;7.848;2023-04-24T12:38:06;1.47;;;1.37;;
2438;SDS011;14509;47.992;7.848;2023-04-24T12:40:09;1.20;;;1.10;;